GRZ528 Details

Departure: Calgary International Airport (CYYC)
Arrival: Ted Stevens Anchorage International Airport (PANC)
Route: BANFF2 IPSIT Q810 EPLAN 54N18 5N625 MITOM JOH ELLAM5


Current Weather Information
CYYC 250400Z 34005KT 7SM FEW030CB SCT120 12/09 A2982 RMK CB2AC2 VIS VRB 5-10 / SH NE-SE / FRQ LTGCG+LTGIC S-SE SLP103 DENSITY ALT 4300FT
PANC 250353Z 24005KT 10SM FEW060 SCT200 18/07 A2975 RMK AO2 SLP075 T01830072